Time;durP1;ratioP1;P1;durP2;ratioP2;P2;SDS_P1;SDS_P2;PMS_P1;PMS_P2;Temp;Humidity;BMP_temperature;BMP_pressure;BME280_temperature;BME280_humidity;BME280_pressure;Samples;Min_cycle;Max_cycle;Signal;HPM_P1;HPM_P2
2021/06/11 00:01:53;;;;;;;0.80;0.60;;;16.20;99.90;;;16.67;100.00;-21134.31;5038202;28;20779;-79
2021/06/11 00:04:22;;;;;;;0.70;0.60;;;16.20;99.90;;;16.67;100.00;-21134.31;5070037;28;20484;-79
2021/06/11 00:06:50;;;;;;;0.80;0.60;;;16.20;99.90;;;16.61;100.00;-21132.66;5071274;28;20485;-80
2021/06/11 00:09:18;;;;;;;0.70;0.60;;;16.10;99.90;;;16.58;100.00;-21131.97;5062292;28;20545;-80
2021/06/11 00:11:48;;;;;;;0.80;0.70;;;16.10;99.90;;;16.56;100.00;-21131.44;5071161;28;20468;-79
2021/06/11 00:14:16;;;;;;;0.80;0.70;;;16.10;99.90;;;16.53;100.00;-21130.47;5054009;28;20419;-79
2021/06/11 00:16:44;;;;;;;0.80;0.70;;;16.10;99.90;;;16.48;100.00;-21129.09;5037425;28;20823;-79
2021/06/11 00:19:12;;;;;;;0.80;0.70;;;16.00;99.90;;;16.44;100.00;-21128.13;5074414;28;20528;-79
2021/06/11 00:21:41;;;;;;;0.77;0.70;;;16.00;99.90;;;16.41;100.00;-21127.44;5070469;28;20823;-78
2021/06/11 00:24:09;;;;;;;0.70;0.60;;;16.00;99.90;;;16.34;100.00;-21125.53;5055613;28;20448;-79
2021/06/11 00:26:36;;;;;;;0.80;0.60;;;16.00;99.90;;;16.27;100.00;-21123.59;5055388;28;20498;-79
2021/06/11 00:29:03;;;;;;;0.80;0.70;;;15.90;99.90;;;16.20;100.00;-21121.69;5054936;28;20981;-78
2021/06/11 00:31:31;;;;;;;0.70;0.60;;;15.80;99.90;;;16.15;100.00;-21120.31;5056644;28;20790;-79
2021/06/11 00:33:59;;;;;;;0.70;0.60;;;15.80;99.90;;;16.14;100.00;-21120.16;5074750;28;20423;-78
2021/06/11 00:36:47;;;;;;;1.10;1.00;;;15.70;99.90;;;16.07;100.00;-21118.09;5075538;28;20477;-78
2021/06/11 00:39:17;;;;;;;0.80;0.70;;;15.70;99.90;;;16.05;100.00;-21117.56;5056959;28;20470;-78
2021/06/11 00:41:44;;;;;;;0.70;0.60;;;15.60;99.90;;;16.02;100.00;-21116.75;5071534;28;20462;-79
2021/06/11 00:44:12;;;;;;;0.80;0.70;;;15.60;99.90;;;16.00;100.00;-21116.31;5061605;28;20542;-78
2021/06/11 00:46:41;;;;;;;0.70;0.60;;;15.60;99.90;;;16.00;100.00;-21116.31;5073771;28;20466;-78
2021/06/11 00:49:08;;;;;;;0.70;0.60;;;15.50;99.90;;;15.96;100.00;-21115.22;5073712;28;20832;-78
2021/06/11 00:51:37;;;;;;;0.80;0.70;;;15.50;99.90;;;15.90;100.00;-21113.72;5064934;28;20448;-78
2021/06/11 00:54:06;;;;;;;1.07;0.97;;;15.50;99.90;;;15.89;100.00;-21113.44;5070488;28;20471;-78
2021/06/11 00:56:34;;;;;;;0.70;0.63;;;15.40;99.90;;;15.92;100.00;-21114.25;5037746;28;20447;-78
2021/06/11 00:59:01;;;;;;;0.73;0.60;;;15.40;99.90;;;15.89;100.00;-21113.44;5054105;28;20424;-79
2021/06/11 01:01:30;;;;;;;0.80;0.80;;;15.40;99.90;;;15.86;100.00;-21112.47;5059573;28;20509;-78
2021/06/11 01:03:58;;;;;;;0.70;0.60;;;15.40;99.90;;;15.79;100.00;-21110.56;5052550;28;20437;-78
2021/06/11 01:06:27;;;;;;;0.80;0.70;;;15.40;99.90;;;15.73;100.00;-21108.91;5069326;28;20812;-78
2021/06/11 01:08:55;;;;;;;0.80;0.70;;;15.30;99.90;;;15.67;100.00;-21107.41;5084558;28;20901;-79
2021/06/11 01:11:26;;;;;;;0.73;0.63;;;15.30;99.90;;;15.64;100.00;-21106.56;5080095;28;20432;-78
2021/06/11 01:13:54;;;;;;;0.80;0.70;;;15.20;99.90;;;15.60;100.00;-21105.59;5054838;28;20415;-79
2021/06/11 01:16:22;;;;;;;0.80;0.70;;;15.20;99.90;;;15.55;100.00;-21104.09;5054022;28;20473;-78
2021/06/11 01:18:50;;;;;;;0.80;0.73;;;15.20;99.90;;;15.49;100.00;-21102.44;5063806;28;20855;-78
2021/06/11 01:21:22;;;;;;;0.70;0.60;;;15.10;99.90;;;15.45;100.00;-20334.75;5063983;28;20522;-77
2021/06/11 01:24:13;;;;;;;0.80;0.70;;;15.10;99.90;;;15.39;100.00;-18631.53;5072557;28;20801;-77
2021/06/11 01:26:46;;;;;;;0.70;0.60;;;15.00;99.90;;;15.33;100.00;-16318.59;5072978;28;20994;-78
2021/06/11 01:29:17;;;;;;;0.80;0.67;;;14.90;99.90;;;15.29;100.00;-13987.13;5054337;28;20439;-78
2021/06/11 01:31:49;;;;;;;0.80;0.67;;;14.90;99.90;;;15.25;100.00;-10976.03;5055203;28;20437;-78
2021/06/11 01:34:22;;;;;;;0.70;0.60;;;14.80;99.90;;;15.23;100.00;-6685.69;5069827;28;20497;-78
2021/06/11 01:36:55;;;;;;;0.80;0.70;;;14.80;99.90;;;15.19;100.00;-2364.66;5053097;28;20440;-79
2021/06/11 01:39:25;;;;;;;0.70;0.60;;;14.80;99.90;;;15.18;100.00;1131.13;5036753;28;20465;-78
2021/06/11 01:41:56;;;;;;;0.70;0.60;;;14.70;99.90;;;15.15;100.00;3659.13;5071601;28;20917;-78
2021/06/11 01:44:26;;;;;;;0.80;0.73;;;14.70;99.90;;;15.14;100.00;5817.75;5072520;28;20431;-78
2021/06/11 01:46:57;;;;;;;0.70;0.70;;;14.70;99.90;;;15.15;100.00;7331.59;5060053;28;20881;-80
2021/06/11 01:49:28;;;;;;;0.80;0.70;;;14.70;99.90;;;15.20;100.00;8661.28;5062209;28;20452;-78
2021/06/11 01:52:01;;;;;;;0.80;0.70;;;14.70;99.90;;;15.19;100.00;9921.53;5053329;28;20443;-78
2021/06/11 01:54:29;;;;;;;0.70;0.70;;;14.70;99.90;;;15.19;100.00;11065.28;5064937;28;20473;-78
2021/06/11 01:56:59;;;;;;;0.70;0.60;;;14.70;99.90;;;15.18;100.00;12007.97;5035876;28;20805;-78
2021/06/11 01:59:28;;;;;;;0.70;0.60;;;14.70;99.90;;;15.16;100.00;13123.81;5044522;28;20867;-78
2021/06/11 02:01:57;;;;;;;0.80;0.70;;;14.70;99.90;;;15.15;100.00;13964.91;5052186;28;20482;-79
2021/06/11 02:04:25;;;;;;;0.80;0.70;;;14.70;99.90;;;15.12;100.00;14576.00;5036220;28;20431;-77
2021/06/11 02:06:53;;;;;;;0.70;0.60;;;14.60;99.90;;;15.11;100.00;15447.97;5051603;28;20473;-79
2021/06/11 02:09:23;;;;;;;0.70;0.63;;;14.60;99.90;;;15.15;100.00;16209.53;5046351;28;20470;-78
2021/06/11 02:11:51;;;;;;;0.80;0.70;;;14.70;99.90;;;15.21;100.00;16869.81;5052677;28;20407;-78
2021/06/11 02:14:24;;;;;;;0.70;0.60;;;14.70;99.90;;;15.25;100.00;16973.31;5052315;28;20453;-78
2021/06/11 02:16:54;;;;;;;0.70;0.60;;;14.70;99.90;;;15.28;100.00;16915.47;5067929;28;20438;-78
2021/06/11 02:19:22;;;;;;;0.80;0.70;;;14.70;99.90;;;15.33;100.00;17001.59;5054729;28;20923;-79
2021/06/11 02:21:49;;;;;;;0.70;0.60;;;14.80;99.90;;;15.38;100.00;16952.28;5072015;28;20425;-78
2021/06/11 02:24:19;;;;;;;0.83;0.83;;;14.80;99.90;;;15.38;100.00;16990.56;5072383;28;20451;-78
2021/06/11 02:26:48;;;;;;;0.70;0.60;;;14.80;99.90;;;15.39;100.00;16817.31;5066549;28;20540;-78
2021/06/11 02:29:15;;;;;;;0.70;0.60;;;14.90;99.90;;;15.36;100.00;16389.81;5073396;28;20477;-78
2021/06/11 02:31:45;;;;;;;0.80;0.70;;;14.90;99.90;;;15.35;100.00;16098.66;5069903;28;20544;-79
2021/06/11 02:34:13;;;;;;;0.70;0.60;;;14.80;99.90;;;15.34;100.00;15539.25;5064406;28;20442;-78
2021/06/11 02:36:41;;;;;;;0.80;0.70;;;14.80;99.90;;;15.31;100.00;15040.91;5069974;28;20524;-79
2021/06/11 02:39:09;;;;;;;0.80;0.70;;;14.80;99.90;;;15.28;100.00;14455.63;5047735;28;20466;-78
2021/06/11 02:41:44;;;;;;;0.80;0.70;;;14.80;99.90;;;15.21;100.00;13558.53;5055432;28;20444;-79
2021/06/11 02:44:13;;;;;;;0.70;0.60;;;14.80;99.90;;;15.19;100.00;12925.69;5071538;28;20431;-78
2021/06/11 02:46:47;;;;;;;0.70;0.70;;;14.70;99.90;;;15.16;100.00;12063.50;5056593;28;20525;-78
2021/06/11 02:49:22;;;;;;;0.70;0.67;;;14.70;99.90;;;15.14;100.00;10941.75;5035761;28;20426;-78
2021/06/11 02:51:53;;;;;;;0.80;0.70;;;14.60;99.90;;;15.09;100.00;9697.69;5052716;28;20421;-78
2021/06/11 02:54:26;;;;;;;0.80;0.70;;;14.60;99.90;;;15.05;100.00;8365.50;5053025;28;20820;-78
2021/06/11 02:56:58;;;;;;;0.70;0.60;;;14.60;99.90;;;15.03;100.00;7072.38;5039468;28;20481;-78
2021/06/11 02:59:31;;;;;;;0.70;0.60;;;14.60;99.90;;;14.99;100.00;5245.72;5055734;28;20999;-79
2021/06/11 03:02:06;;;;;;;0.70;0.60;;;14.50;99.90;;;14.94;100.00;3336.34;5073065;28;20419;-78
2021/06/11 03:04:35;;;;;;;0.70;0.53;;;14.50;99.90;;;14.92;100.00;1598.69;5072381;28;20455;-79
2021/06/11 03:07:04;;;;;;;1.07;0.97;;;14.50;99.90;;;14.94;100.00;-498.06;5069835;28;21004;-79
2021/06/11 03:09:36;;;;;;;0.70;0.60;;;14.50;99.90;;;14.96;100.00;-2527.66;5057634;28;20811;-78
2021/06/11 03:12:05;;;;;;;0.70;0.60;;;14.40;99.90;;;14.96;100.00;-4807.03;5051481;28;20420;-78
2021/06/11 03:14:35;;;;;;;0.70;0.60;;;14.50;99.90;;;15.01;100.00;-7150.88;5061657;28;20457;-78
2021/06/11 03:17:04;;;;;;;0.70;0.60;;;14.50;99.90;;;15.00;100.00;-9480.31;5070612;28;20447;-78
2021/06/11 03:19:37;;;;;;;0.70;0.60;;;14.50;99.90;;;15.01;100.00;-11957.44;5074302;28;20905;-79
2021/06/11 03:22:13;;;;;;;0.70;0.60;;;14.50;99.90;;;15.01;100.00;-13825.94;5076883;28;20511;-79
2021/06/11 03:24:48;;;;;;;0.70;0.50;;;14.50;99.90;;;15.00;100.00;-15938.34;5076815;28;20452;-79
2021/06/11 03:27:23;;;;;;;0.70;0.60;;;14.50;99.90;;;15.02;100.00;-17792.31;5056545;28;20818;-78
2021/06/11 03:29:57;;;;;;;0.70;0.60;;;14.50;99.90;;;15.04;100.00;-19251.88;5068261;28;20437;-78
2021/06/11 03:32:31;;;;;;;0.70;0.60;;;14.50;99.90;;;15.02;100.00;-20326.13;5070533;28;20428;-78
2021/06/11 03:35:05;;;;;;;0.70;0.50;;;14.50;99.90;;;15.04;100.00;-21090.34;5075120;28;20410;-79
2021/06/11 03:37:33;;;;;;;0.70;0.60;;;14.50;99.90;;;15.06;100.00;-21091.03;5052483;28;20453;-79
2021/06/11 03:40:06;;;;;;;0.70;0.60;;;14.60;99.90;;;15.07;100.00;-21091.31;5076178;28;20864;-78
2021/06/11 03:42:37;;;;;;;0.70;0.60;;;14.50;99.90;;;15.08;100.00;-21091.44;5068863;28;20440;-78
2021/06/11 03:45:08;;;;;;;0.70;0.60;;;14.60;99.90;;;15.10;100.00;-21092.00;5057084;28;20422;-78
2021/06/11 03:47:39;;;;;;;0.80;0.70;;;14.60;99.90;;;15.14;100.00;-21093.22;5054303;28;20960;-78
2021/06/11 03:50:10;;;;;;;0.70;0.60;;;14.60;99.90;;;15.14;100.00;-21093.22;5060362;28;20838;-78
2021/06/11 03:52:42;;;;;;;0.73;0.67;;;14.60;99.90;;;15.15;100.00;-21093.38;5069670;28;20484;-78
2021/06/11 03:55:17;;;;;;;0.70;0.60;;;14.60;99.90;;;15.13;100.00;-21092.94;5072781;28;20410;-78
2021/06/11 03:57:53;;;;;;;0.80;0.60;;;14.60;99.90;;;15.13;100.00;-21092.81;5072674;28;20436;-78
2021/06/11 04:00:23;;;;;;;0.70;0.60;;;14.60;99.90;;;15.09;100.00;-21091.72;5091266;28;20430;-78
2021/06/11 04:02:52;;;;;;;0.80;0.70;;;14.60;99.90;;;15.09;100.00;-21091.72;5060284;28;20436;-78
2021/06/11 04:05:21;;;;;;;0.70;0.60;;;14.60;99.90;;;15.11;100.00;-21092.25;5073057;28;20881;-78
2021/06/11 04:07:53;;;;;;;0.70;0.60;;;14.60;99.90;;;15.10;100.00;-21092.00;5059180;28;20527;-78
2021/06/11 04:10:28;;;;;;;0.80;0.70;;;14.60;99.90;;;15.10;100.00;-21092.00;5072714;28;20981;-78
2021/06/11 04:13:01;;;;;;;0.70;0.60;;;14.60;99.90;;;15.15;100.00;-21093.38;5058064;28;20441;-78
2021/06/11 04:15:34;;;;;;;0.70;0.60;;;14.60;99.90;;;15.20;100.00;-21094.75;5055134;28;20458;-78
2021/06/11 04:18:08;;;;;;;0.70;0.60;;;14.60;99.90;;;15.25;100.00;-21096.13;5070915;28;20417;-77
2021/06/11 04:20:37;;;;;;;0.70;0.60;;;14.70;99.90;;;15.33;100.00;-21098.31;5040675;28;20468;-77
2021/06/11 04:23:29;;;;;;;0.70;0.60;;;14.70;99.90;;;15.40;100.00;-21100.09;5059097;28;20876;-77
2021/06/11 04:26:01;;;;;;;0.80;0.80;;;14.80;99.90;;;15.49;100.00;-21102.44;5049104;28;20438;-77
2021/06/11 04:28:34;;;;;;;0.70;0.60;;;14.80;99.90;;;15.59;100.00;-21105.31;5063507;28;20471;-77
2021/06/11 04:31:02;;;;;;;0.70;0.60;;;14.90;99.90;;;15.71;100.00;-21108.50;5069794;28;20825;-78
2021/06/11 04:33:31;;;;;;;0.70;0.70;;;15.00;99.90;;;15.78;100.00;-21110.41;5067755;28;20933;-78
2021/06/11 04:35:59;;;;;;;0.80;0.70;;;15.10;99.90;;;15.92;100.00;-21114.13;5069668;28;20437;-77
2021/06/11 04:38:37;;;;;;;0.80;0.73;;;15.20;99.90;;;16.01;100.00;-21116.47;5071575;28;20490;-77
2021/06/11 04:41:04;;;;;;;1.10;0.93;;;15.30;99.90;;;16.06;100.00;-21117.84;5051315;28;20434;-77
2021/06/11 04:43:32;;;;;;;0.80;0.70;;;15.40;99.90;;;16.11;100.00;-21119.22;5052180;28;20428;-77
2021/06/11 04:45:59;;;;;;;0.80;0.70;;;15.50;99.90;;;16.19;100.00;-21121.41;5052592;28;20522;-77
2021/06/11 04:48:27;;;;;;;0.70;0.60;;;15.50;99.90;;;16.23;100.00;-21122.50;5053785;28;20830;-78
2021/06/11 04:50:56;;;;;;;0.80;0.70;;;15.60;99.90;;;16.31;100.00;-21124.69;5055470;28;20424;-77
2021/06/11 04:53:24;;;;;;;0.70;0.70;;;15.60;99.90;;;16.49;100.00;-21129.38;5053965;28;20548;-79
2021/06/11 04:55:52;;;;;;;0.70;0.60;;;15.70;99.90;;;16.73;100.00;-21135.97;5053691;28;20425;-79
2021/06/11 04:58:20;;;;;;;0.70;0.63;;;15.90;99.90;;;16.75;100.00;-21136.38;5054780;28;21006;-79
2021/06/11 05:00:48;;;;;;;0.70;0.60;;;16.00;99.90;;;16.77;100.00;-21137.06;5052209;28;20436;-78
2021/06/11 05:03:17;;;;;;;0.70;0.60;;;16.10;99.90;;;16.93;100.00;-21141.31;5054816;28;20752;-79
2021/06/11 05:05:45;;;;;;;0.70;0.70;;;16.10;99.90;;;16.99;100.00;-21142.97;5053538;28;20847;-79
2021/06/11 05:08:15;;;;;;;0.70;0.60;;;16.30;99.90;;;17.03;100.00;-21143.91;5060787;28;20568;-79
2021/06/11 05:10:43;;;;;;;0.70;0.60;;;16.30;99.90;;;17.05;100.00;-21144.47;5061633;28;20917;-79
2021/06/11 05:13:10;;;;;;;0.80;0.70;;;16.40;99.90;;;17.11;100.00;-21146.25;5073409;28;21022;-79
2021/06/11 05:15:39;;;;;;;0.70;0.60;;;16.50;99.90;;;17.22;100.00;-21149.13;5073144;28;20535;-80
2021/06/11 05:18:08;;;;;;;0.80;0.70;;;16.50;99.90;;;17.34;100.00;-21152.28;5071865;28;20450;-79
2021/06/11 05:20:40;;;;;;;0.70;0.70;;;16.60;99.90;;;17.48;100.00;-21156.00;5072931;28;20462;-77
2021/06/11 05:23:08;;;;;;;0.80;0.70;;;16.70;99.90;;;17.61;100.00;-21159.56;5074280;28;20961;-79
2021/06/11 05:25:38;;;;;;;0.70;0.60;;;16.80;99.90;;;17.85;100.00;-21166.13;5074480;28;20517;-80
2021/06/11 05:28:06;;;;;;;0.80;0.70;;;17.00;99.90;;;18.01;100.00;-21170.25;5073411;28;20539;-79
2021/06/11 05:30:34;;;;;;;0.70;0.60;;;17.10;99.90;;;18.15;100.00;-21174.09;5073226;28;20433;-77
2021/06/11 05:33:03;;;;;;;0.70;0.70;;;17.30;99.90;;;18.38;100.00;-21180.13;5072446;28;20466;-79
2021/06/11 05:35:31;;;;;;;0.70;0.60;;;17.50;99.90;;;18.32;100.00;-21178.75;5055288;28;20440;-80
2021/06/11 05:38:04;;;;;;;0.80;0.77;;;17.60;99.90;;;18.41;100.00;-21181.06;5054744;28;20468;-79
2021/06/11 05:40:33;;;;;;;0.80;0.70;;;17.70;99.90;;;18.39;100.00;-21180.38;5053129;28;20434;-78
2021/06/11 05:43:02;;;;;;;1.30;1.20;;;17.80;99.90;;;18.53;100.00;-21184.22;5054218;28;20967;-78
2021/06/11 05:45:32;;;;;;;0.80;0.73;;;17.80;99.90;;;18.64;100.00;-21187.22;5066532;28;20431;-78
2021/06/11 05:48:01;;;;;;;0.70;0.60;;;17.90;99.90;;;18.74;100.00;-21189.97;5052557;28;20512;-81
2021/06/11 05:50:29;;;;;;;0.80;0.70;;;18.00;99.90;;;18.93;100.00;-21195.03;5039247;28;20845;-80
2021/06/11 05:52:57;;;;;;;0.70;0.60;;;18.20;99.90;;;19.12;100.00;-21200.09;5073126;28;20448;-79
2021/06/11 05:55:27;;;;;;;1.60;1.50;;;18.30;99.90;;;19.13;100.00;-21200.22;5072028;28;20438;-77
2021/06/11 05:57:55;;;;;;;0.80;0.67;;;18.40;99.90;;;19.38;100.00;-21206.94;5074121;28;20790;-80
2021/06/11 06:00:24;;;;;;;0.77;0.70;;;18.60;99.90;;;19.51;100.00;-21210.50;5073790;28;20438;-79
2021/06/11 06:02:53;;;;;;;0.80;0.70;;;18.80;99.90;;;19.55;100.00;-21211.59;5055609;28;20456;-78
2021/06/11 06:05:21;;;;;;;0.80;0.60;;;18.90;99.90;;;19.58;100.00;-21212.25;5073676;28;20446;-77
2021/06/11 06:07:48;;;;;;;0.80;0.70;;;18.90;99.90;;;19.67;100.00;-21214.88;5057533;28;20827;-79
2021/06/11 06:10:17;;;;;;;2.10;2.00;;;19.00;99.90;;;19.82;100.00;-21218.84;5036359;28;20441;-79
2021/06/11 06:12:44;;;;;;;0.80;0.70;;;19.10;99.90;;;19.95;100.00;-21222.38;5052230;28;20487;-80
2021/06/11 06:15:12;;;;;;;0.70;0.63;;;19.20;99.90;;;19.99;100.00;-21223.34;5068771;28;20504;-77
2021/06/11 06:17:41;;;;;;;0.80;0.70;;;19.40;99.90;;;20.09;100.00;-21226.06;5053585;28;20455;-79
2021/06/11 06:20:12;;;;;;;0.70;0.63;;;19.50;99.90;;;20.25;100.00;-21230.44;5052630;28;20449;-78
2021/06/11 06:22:42;;;;;;;0.70;0.60;;;19.60;99.90;;;20.33;100.00;-21232.34;5052782;28;20424;-79
2021/06/11 06:25:12;;;;;;;0.80;0.70;;;19.70;99.90;;;20.52;100.00;-21237.56;5036189;28;20441;-79
2021/06/11 06:27:42;;;;;;;0.70;0.60;;;19.80;99.90;;;20.63;100.00;-21240.56;5053099;28;20440;-79
2021/06/11 06:30:14;;;;;;;0.70;0.60;;;20.00;99.90;;;20.82;100.00;-21245.47;5069922;28;21016;-78
2021/06/11 06:32:43;;;;;;;0.90;0.90;;;20.00;99.90;;;20.83;100.00;-21245.75;5075265;28;20427;-79
2021/06/11 06:35:17;;;;;;;0.70;0.60;;;20.20;99.90;;;20.73;100.00;-21243.16;5079153;28;20446;-79
2021/06/11 06:37:50;;;;;;;0.70;0.60;;;20.30;99.90;;;20.92;100.00;-21248.19;5076690;28;20455;-80
2021/06/11 06:40:18;;;;;;;1.07;0.97;;;20.40;99.90;;;20.88;100.00;-21247.25;5077859;28;20515;-80
2021/06/11 06:42:47;;;;;;;0.80;0.70;;;20.40;99.90;;;20.95;100.00;-21249.00;5060470;28;20960;-80
2021/06/11 06:45:15;;;;;;;0.77;0.70;;;20.50;99.90;;;21.19;100.00;-21255.56;5074487;28;20446;-79
2021/06/11 06:47:45;;;;;;;0.80;0.77;;;20.60;99.90;;;21.40;100.00;-21261.03;5057087;28;20445;-78
2021/06/11 06:50:17;;;;;;;0.80;0.70;;;20.80;99.90;;;21.59;100.00;-21266.06;5055619;28;20459;-79
2021/06/11 06:52:46;;;;;;;0.80;0.70;;;20.90;99.90;;;21.72;100.00;-21269.59;5054564;28;20454;-80
2021/06/11 06:55:14;;;;;;;0.70;0.70;;;21.00;99.90;;;21.86;100.00;-21273.28;5050907;28;20489;-79
2021/06/11 06:57:44;;;;;;;0.80;0.70;;;21.10;99.90;;;21.76;100.00;-21270.56;5084299;28;20403;-79
2021/06/11 07:00:15;;;;;;;0.87;0.80;;;21.20;99.90;;;22.08;100.00;-21279.28;5095894;28;20411;-80
2021/06/11 07:02:44;;;;;;;0.80;0.60;;;21.40;99.90;;;22.26;100.00;-21283.91;5067050;28;20431;-82
2021/06/11 07:05:15;;;;;;;0.80;0.70;;;21.50;99.90;;;22.37;100.00;-21287.06;5078822;28;20463;-81
2021/06/11 07:07:42;;;;;;;0.80;0.63;;;21.60;99.90;;;22.19;100.00;-21282.16;5062984;28;20558;-79
2021/06/11 07:10:11;;;;;;;0.70;0.70;;;21.70;99.90;;;22.12;100.00;-21280.25;5043317;28;20871;-84
2021/06/11 07:12:39;;;;;;;1.07;0.97;;;21.70;99.90;;;22.27;100.00;-21284.31;5059249;28;20944;-83
2021/06/11 07:15:11;;;;;;;0.80;0.70;;;21.80;99.90;;;22.53;100.00;-21291.28;5058266;28;20424;-82
2021/06/11 07:18:00;;;;;;;0.70;0.70;;;22.00;99.90;;;22.70;100.00;-21295.63;5081791;28;20438;-81
2021/06/11 07:20:28;;;;;;;1.00;0.90;;;22.10;99.90;;;23.00;100.00;-21303.66;5082125;28;20442;-84
2021/06/11 07:22:56;;;;;;;0.70;0.60;;;22.30;99.90;;;23.03;100.00;-21304.63;5060217;28;20446;-81
2021/06/11 07:25:24;;;;;;;0.70;0.60;;;22.50;99.90;;;23.00;100.00;-21303.78;5084676;28;20428;-83
2021/06/11 07:27:55;;;;;;;0.70;0.60;;;22.60;99.90;;;23.25;100.00;-21310.47;5061799;28;20513;-78
2021/06/11 07:30:23;;;;;;;0.80;0.70;;;22.80;99.90;;;23.61;100.00;-21320.13;5077469;28;20418;-78
2021/06/11 07:32:51;;;;;;;0.70;0.60;;;22.90;99.90;;;23.45;100.00;-21315.75;5074680;28;20430;-79
2021/06/11 07:35:20;;;;;;;0.80;0.70;;;23.00;99.90;;;23.71;100.00;-21322.56;5074897;28;20449;-81
2021/06/11 07:37:48;;;;;;;0.80;0.80;;;23.10;99.90;;;23.74;100.00;-21323.38;5059132;28;20513;-80
2021/06/11 07:40:16;;;;;;;0.70;0.60;;;23.30;99.90;;;23.79;100.00;-21324.88;5072857;28;20526;-81
2021/06/11 07:42:43;;;;;;;0.70;0.70;;;23.40;99.90;;;23.81;100.00;-21325.28;5057976;28;20428;-79
2021/06/11 07:45:12;;;;;;;0.80;0.70;;;23.50;99.90;;;23.93;100.00;-21328.53;5066381;28;20397;-79
2021/06/11 07:47:40;;;;;;;0.80;0.80;;;23.60;99.90;;;23.78;100.00;-21324.47;5076534;28;20443;-80
2021/06/11 07:50:09;;;;;;;0.80;0.70;;;23.70;99.90;;;24.37;100.00;-21340.22;5079572;28;20460;-79
2021/06/11 07:52:39;;;;;;;0.77;0.67;;;23.80;99.90;;;24.70;100.00;-21349.03;5078969;28;20416;-78
2021/06/11 07:55:08;;;;;;;0.80;0.70;;;24.00;99.90;;;24.14;100.00;-21333.97;5081134;28;20517;-79
2021/06/11 07:57:39;;;;;;;0.70;0.70;;;24.00;99.90;;;24.25;100.00;-21337.09;5076547;28;20793;-78
2021/06/11 08:00:09;;;;;;;1.13;1.03;;;24.20;99.90;;;24.58;100.00;-21345.94;5074670;28;20444;-79
2021/06/11 08:02:54;;;;;;;0.80;0.70;;;24.30;99.90;;;24.72;100.00;-21349.44;5077031;28;20504;-78
2021/06/11 08:05:24;;;;;;;0.77;0.70;;;24.50;99.90;;;24.72;100.00;-21349.59;5073989;28;20410;-79
2021/06/11 08:07:53;;;;;;;0.70;0.60;;;24.60;99.90;;;25.47;100.00;-21369.53;5075568;28;20473;-77
2021/06/11 08:10:23;;;;;;;0.70;0.60;;;24.80;99.90;;;25.60;100.00;-21372.78;5060285;28;20473;-80
2021/06/11 08:12:50;;;;;;;0.80;0.60;;;25.00;99.90;;;25.18;100.00;-21361.78;5075630;28;20760;-79
2021/06/11 08:15:22;;;;;;;0.70;0.60;;;25.10;99.90;;;25.13;100.00;-21360.31;5075526;28;20428;-79
2021/06/11 08:17:49;;;;;;;0.70;0.60;;;25.00;99.90;;;25.35;100.00;-21366.28;5074258;28;20866;-79
2021/06/11 08:20:18;;;;;;;0.77;0.60;;;25.00;99.90;;;25.89;100.00;-21380.50;5078046;28;20480;-79
2021/06/11 08:22:45;;;;;;;0.70;0.60;;;25.20;99.90;;;26.13;100.00;-21387.00;5075534;28;20421;-79
2021/06/11 08:25:14;;;;;;;0.70;0.60;;;25.50;99.90;;;26.32;100.00;-21391.88;5067211;28;20417;-79
2021/06/11 08:27:42;;;;;;;0.80;0.60;;;25.70;99.90;;;26.54;100.00;-21397.69;5075363;28;20507;-78
2021/06/11 08:30:12;;;;;;;0.80;0.60;;;25.90;99.90;;;26.85;100.00;-21406.09;5076061;28;20498;-78
2021/06/11 08:32:48;;;;;;;0.73;0.60;;;26.30;99.90;;;27.15;100.00;-21413.94;5077657;28;20411;-82
2021/06/11 08:35:18;;;;;;;0.70;0.60;;;26.50;99.90;;;27.59;100.00;-21425.56;5080781;28;20427;-79
2021/06/11 08:37:46;;;;;;;0.70;0.60;;;26.90;98.20;;;27.51;100.00;-21423.53;5059199;28;20867;-76
2021/06/11 08:40:18;;;;;;;0.70;0.50;;;27.00;93.50;;;27.36;100.00;-21419.63;5074761;28;20493;-80
2021/06/11 08:42:47;;;;;;;0.70;0.60;;;27.20;92.40;;;28.23;100.00;-21442.56;5059716;28;20559;-78
2021/06/11 08:45:17;;;;;;;0.80;0.60;;;27.60;88.70;;;28.29;100.00;-21444.19;5075264;28;20431;-80
2021/06/11 08:47:49;;;;;;;0.80;0.70;;;28.00;89.30;;;28.60;100.00;-21452.41;5052917;28;20554;-78
2021/06/11 08:50:20;;;;;;;0.70;0.50;;;28.30;77.50;;;29.01;100.00;-21463.06;5054367;28;20472;-80
2021/06/11 08:52:48;;;;;;;0.70;0.53;;;28.50;73.40;;;28.91;100.00;-21460.38;5073067;28;20511;-84
2021/06/11 08:55:18;;;;;;;0.83;0.80;;;28.60;71.10;;;29.29;100.00;-21470.63;5073833;28;20924;-77
2021/06/11 08:57:46;;;;;;;0.70;0.60;;;28.80;68.10;;;29.75;100.00;-21482.75;5073315;28;20459;-78
2021/06/11 09:00:14;;;;;;;0.70;0.50;;;29.20;64.50;;;29.12;100.00;-21466.03;5055337;28;20447;-82
2021/06/11 09:03:15;;;;;;;0.70;0.50;;;29.30;62.40;;;30.20;100.00;-21494.59;5073714;28;20489;-80
2021/06/11 09:05:44;;;;;;;0.70;0.50;;;29.70;64.50;;;30.86;100.00;-21511.94;5029528;28;20959;-78
2021/06/11 09:08:21;;;;;;;0.83;0.60;;;30.50;60.50;;;32.28;100.00;-21549.13;5056238;28;20492;-78
2021/06/11 09:11:07;;;;;;;0.70;0.50;;;31.50;50.50;;;32.19;100.00;-21546.97;5073365;28;20442;-75
2021/06/11 09:14:02;;;;;;;0.70;0.50;;;32.00;48.40;;;31.64;100.00;-21532.50;5074935;28;20452;-78
2021/06/11 09:16:42;;;;;;;0.70;0.50;;;32.20;46.00;;;31.26;100.00;-21522.56;5069797;28;20798;-80
2021/06/11 09:19:13;;;;;;;0.70;0.50;;;32.60;42.10;;;31.75;100.00;-21535.31;5055964;28;20450;-78
2021/06/11 09:21:43;;;;;;;0.80;0.60;;;32.80;38.70;;;31.35;100.00;-21524.69;5074168;28;20443;-81
2021/06/11 09:24:24;;;;;;;0.80;0.50;;;32.50;42.20;;;32.07;100.00;-21543.63;5073055;28;20474;-79
2021/06/11 09:27:16;;;;;;;0.83;0.57;;;32.40;38.30;;;32.57;100.00;-21556.91;5089632;28;20852;-78
2021/06/11 09:29:46;;;;;;;0.80;0.60;;;32.50;35.50;;;32.99;100.00;-21567.75;5073245;28;20478;-78
2021/06/11 09:32:21;;;;;;;0.80;0.60;;;32.80;34.30;;;33.03;100.00;-21568.97;5072487;28;20407;-81
2021/06/11 09:34:52;;;;;;;0.70;0.50;;;33.30;29.10;;;33.32;100.00;-21576.44;5055942;28;20969;-78
2021/06/11 09:37:25;;;;;;;0.80;0.50;;;33.30;31.50;;;33.19;100.00;-21573.25;5071889;28;20466;-80
2021/06/11 09:39:55;;;;;;;0.80;0.50;;;33.50;30.70;;;32.30;100.00;-21549.66;5056605;28;20451;-78
2021/06/11 09:42:27;;;;;;;0.97;0.80;;;33.60;28.90;;;33.69;100.00;-21586.09;5056869;28;20542;-78
2021/06/11 09:45:01;;;;;;;0.80;0.50;;;33.90;28.30;;;34.25;100.00;-21600.78;5072853;28;20416;-77
2021/06/11 09:47:38;;;;;;;0.80;0.50;;;34.60;23.10;;;33.41;100.00;-21578.84;5063166;28;20452;-77
2021/06/11 09:50:15;;;;;;;0.80;0.50;;;34.70;22.60;;;33.43;100.00;-21579.53;5036206;28;20495;-80
2021/06/11 09:52:56;;;;;;;0.80;0.50;;;34.90;22.60;;;33.20;100.00;-21573.38;5053657;28;20503;-79
2021/06/11 09:55:34;;;;;;;0.80;0.53;;;34.70;23.70;;;34.60;100.00;-21610.16;5051824;28;20416;-76
2021/06/11 09:58:19;;;;;;;0.80;0.60;;;35.00;21.00;;;33.10;100.00;-21570.84;5035243;28;20415;-76
2021/06/11 10:00:53;;;;;;;0.80;0.50;;;34.90;20.30;;;33.40;100.00;-21578.59;5052338;28;20435;-75
2021/06/11 10:03:25;;;;;;;0.80;0.50;;;34.70;22.00;;;34.54;100.00;-21608.53;5052033;28;20442;-75
2021/06/11 10:05:55;;;;;;;0.80;0.50;;;34.90;19.80;;;33.95;100.00;-21593.03;5069089;28;20510;-76
2021/06/11 10:08:25;;;;;;;0.80;0.50;;;34.90;19.80;;;34.29;100.00;-21602.00;5051139;28;20459;-79
2021/06/11 10:10:55;;;;;;;0.80;0.50;;;34.70;19.90;;;33.97;100.00;-21593.44;5052512;28;20478;-78
2021/06/11 10:13:25;;;;;;;1.03;0.73;;;34.60;20.70;;;34.92;100.00;-21618.41;5051537;28;20431;-79
2021/06/11 10:15:56;;;;;;;0.80;0.50;;;35.30;19.40;;;35.39;100.00;-21630.69;5051422;28;20436;-80
2021/06/11 10:18:24;;;;;;;0.87;0.60;;;35.60;19.80;;;34.10;100.00;-21597.06;5053349;28;20464;-79
2021/06/11 10:20:53;;;;;;;0.80;0.50;;;35.50;20.50;;;35.68;100.00;-21638.16;5063567;28;20419;-78
2021/06/11 10:23:23;;;;;;;0.80;0.50;;;35.90;15.80;;;35.51;100.00;-21633.75;5073531;28;20457;-78